This is the latest recevied weather packets stored in our database for station/object HB9KBJ-4. If no packets are shown the sender has not sent any weather packets the latest 1 day(s).
| Time | Temp. | Humidity | Pressure | Rain* | Wind** | Luminosity | Snow |
|---|---|---|---|---|---|---|---|
| 1777987280 | 17.78° C | 55% | - | 0.51 mm | 0 m/s | - | - |
| 1777986980 | 17.78° C | 56% | - | 0.51 mm | 0 m/s | - | - |
| 1777986680 | 17.78° C | 55% | - | 0.51 mm | 0 m/s | - | - |
| 1777986379 | 17.78° C | 54% | - | 0.51 mm | 0 m/s | - | - |
| 1777985779 | 17.78° C | 53% | - | 0.51 mm | 0 m/s | - | - |
| 1777985478 | 17.78° C | 52% | - | 0.51 mm | 0 m/s | - | - |
| 1777983677 | 18.33° C | 54% | - | 0.51 mm | 0.89 m/s, 21° | - | - |
| 1777982776 | 18.33° C | 53% | - | 0.51 mm | 0.45 m/s, 10° | - | - |
| 1777980073 | 18.89° C | 54% | - | 0.51 mm | 0.89 m/s, 87° | - | - |
| 1777979773 | 18.33° C | 57% | - | 0.51 mm | 0.45 m/s, 318° | - | - |
| 1777979173 | 17.22° C | 60% | - | 0.51 mm | 0.45 m/s, 62° | - | - |
| 1777978572 | 16.67° C | 62% | - | 0.51 mm | 0 m/s | - | - |
| 1777978272 | 16.67° C | 63% | - | 0.51 mm | 0.45 m/s, 330° | - | - |
| 1777977671 | 16.67° C | 63% | - | 0.51 mm | 0.45 m/s, 139° | - | - |
| 1777976170 | 14.44° C | 67% | - | 0.51 mm | 0.89 m/s, 80° | - | - |
| 1777975869 | 14.44° C | 69% | - | 0.51 mm | 0.89 m/s, 58° | - | - |
| 1777975569 | 13.89° C | 69% | - | 0.51 mm | 0.89 m/s, 68° | - | - |
| 1777974668 | 13.89° C | 71% | - | 0.51 mm | 0.45 m/s, 53° | - | - |
| 1777973767 | 12.78° C | 77% | - | 0.51 mm | 0.45 m/s, 312° | - | - |
| 1777973467 | 12.22° C | 79% | - | 0.51 mm | 0.45 m/s, 314° | - | - |
| 1777973167 | 12.22° C | 79% | - | 0.51 mm | 0 m/s | - | - |
| 1777972866 | 11.67° C | 79% | - | 0.51 mm | 0 m/s | - | - |
| 1777972566 | 11.67° C | 80% | - | 0.51 mm | 0.45 m/s, 90° | - | - |
| 1777972266 | 11.67° C | 79% | - | 0.51 mm | 0 m/s | - | - |
| 1777971966 | 11.67° C | 79% | - | 0.51 mm | 0 m/s | - | - |
* Rain since midnight (hover to see other rain measurements)
** Current wind speed in m/s (hover to see current wind gust speed)